createdAt,value
2023-03-10T00:00:17.324Z,44.50
2023-03-10T00:03:03.042Z,48.63
2023-03-10T00:05:48.415Z,46.05
2023-03-10T00:08:33.764Z,45.38
2023-03-10T00:11:19.439Z,45.97
2023-03-10T00:14:04.700Z,42.42
2023-03-10T00:16:50.250Z,42.33
2023-03-10T00:19:35.477Z,42.00
2023-03-10T00:22:21.079Z,39.83
2023-03-10T00:25:07.710Z,43.10
2023-03-10T00:27:52.772Z,38.55
2023-03-10T00:30:38.295Z,39.08
2023-03-10T00:33:23.238Z,42.78
2023-03-10T00:36:21.365Z,39.15
2023-03-10T00:39:08.923Z,40.63
2023-03-10T00:41:55.168Z,40.28
2023-03-10T00:44:41.773Z,40.33
2023-03-10T00:47:27.205Z,37.60
2023-03-10T00:50:13.409Z,35.20
2023-03-10T00:53:00.929Z,40.70
2023-03-10T00:55:58.141Z,37.05
2023-03-10T00:58:43.698Z,36.78
2023-03-10T01:01:37.417Z,40.47
2023-03-10T01:04:22.624Z,38.33
2023-03-10T01:07:07.783Z,36.85
2023-03-10T01:09:53.001Z,36.63
2023-03-10T01:12:38.860Z,36.53
2023-03-10T01:15:24.479Z,37.58
2023-03-10T01:18:09.647Z,38.13
2023-03-10T01:20:54.866Z,34.30
2023-03-10T01:23:40.130Z,34.90
2023-03-10T01:26:25.460Z,34.47
2023-03-10T01:29:10.731Z,35.17
2023-03-10T01:31:56.117Z,36.75
2023-03-10T01:34:41.641Z,34.25
2023-03-10T01:37:27.054Z,34.65
2023-03-10T01:40:18.563Z,33.63
2023-03-10T01:43:18.999Z,36.28
2023-03-10T01:46:04.237Z,35.60
2023-03-10T01:48:51.395Z,33.50
2023-03-10T01:51:38.840Z,34.80
2023-03-10T01:54:33.849Z,35.00
2023-03-10T01:57:22.049Z,31.95
2023-03-10T02:00:16.079Z,38.40
2023-03-10T02:03:07.714Z,38.55
2023-03-10T02:06:03.724Z,29.83
2023-03-10T02:08:57.890Z,32.60
2023-03-10T02:11:45.707Z,34.38
2023-03-10T02:14:32.447Z,36.65
2023-03-10T02:17:21.178Z,31.77
2023-03-10T02:20:21.608Z,32.70
2023-03-10T02:23:10.052Z,32.13
2023-03-10T02:26:04.182Z,33.67
2023-03-10T02:28:50.875Z,34.20
2023-03-10T02:31:36.497Z,31.92
2023-03-10T02:34:23.473Z,33.40
2023-03-10T02:37:22.064Z,34.47
2023-03-10T02:40:33.632Z,34.88
2023-03-10T02:43:24.782Z,33.28
2023-03-10T02:46:15.170Z,34.20
2023-03-10T02:49:06.069Z,32.35
2023-03-10T02:51:59.224Z,32.47
2023-03-10T02:54:45.110Z,31.73
2023-03-10T02:57:30.499Z,28.58
2023-03-10T03:00:16.205Z,33.25
2023-03-10T03:03:01.683Z,33.90
2023-03-10T03:05:47.894Z,32.15
2023-03-10T03:08:33.382Z,35.45
2023-03-10T03:11:20.496Z,31.60
2023-03-10T03:14:06.211Z,29.30
2023-03-10T03:16:51.521Z,31.95
2023-03-10T03:19:37.267Z,29.00
2023-03-10T03:22:22.892Z,28.38
2023-03-10T03:25:09.940Z,28.77
2023-03-10T03:27:55.205Z,28.55
2023-03-10T03:30:41.010Z,28.88
2023-03-10T03:33:26.497Z,25.02
2023-03-10T03:36:13.040Z,27.70
2023-03-10T03:38:58.295Z,27.67
2023-03-10T03:41:46.552Z,29.35
2023-03-10T03:44:32.072Z,30.20
2023-03-10T03:47:18.393Z,25.90
2023-03-10T03:50:04.439Z,24.25
2023-03-10T03:52:50.037Z,23.48
2023-03-10T03:55:37.868Z,25.35
2023-03-10T03:58:25.332Z,25.67
2023-03-10T04:01:10.769Z,26.00
2023-03-10T04:04:01.428Z,22.75
2023-03-10T04:06:46.657Z,23.33
2023-03-10T04:09:32.257Z,22.23
2023-03-10T04:12:17.852Z,20.30
2023-03-10T04:15:08.207Z,19.80
2023-03-10T04:17:53.929Z,22.55
2023-03-10T04:20:39.089Z,21.23
2023-03-10T04:23:24.563Z,23.65
2023-03-10T04:26:10.812Z,20.75
2023-03-10T04:28:59.079Z,19.70
2023-03-10T04:31:59.107Z,24.10
2023-03-10T04:34:50.815Z,25.50
2023-03-10T04:37:36.495Z,21.55
2023-03-10T04:40:21.827Z,23.63
2023-03-10T04:43:07.341Z,25.83
2023-03-10T04:45:53.246Z,25.75
2023-03-10T04:48:39.688Z,22.25
2023-03-10T04:51:24.823Z,20.52
2023-03-10T04:54:12.304Z,20.15
2023-03-10T04:56:58.644Z,18.80
2023-03-10T04:59:44.891Z,21.63
2023-03-10T05:02:32.357Z,23.55
2023-03-10T05:05:20.127Z,21.90
2023-03-10T05:08:07.262Z,21.40
2023-03-10T05:10:52.769Z,20.25
2023-03-10T05:13:39.278Z,20.38
2023-03-10T05:16:25.240Z,18.80
2023-03-10T05:19:11.866Z,22.85
2023-03-10T05:21:57.375Z,23.55
2023-03-10T05:24:43.691Z,21.35
2023-03-10T05:27:29.573Z,20.02
2023-03-10T05:30:16.032Z,20.05
2023-03-10T05:33:04.072Z,16.52
2023-03-10T05:35:49.955Z,22.00
2023-03-10T05:38:36.670Z,21.48
2023-03-10T05:41:23.744Z,18.33
2023-03-10T05:46:59.308Z,22.50
2023-03-10T05:49:45.113Z,22.08
2023-03-10T05:52:30.330Z,18.00
2023-03-10T05:55:18.395Z,19.42
2023-03-10T05:58:04.049Z,16.90
2023-03-10T06:00:49.777Z,18.27
2023-03-10T06:03:35.427Z,22.42
2023-03-10T06:06:20.928Z,23.15
2023-03-10T06:09:07.112Z,20.50
2023-03-10T06:11:52.533Z,19.00
2023-03-10T06:14:38.593Z,18.88
2023-03-10T06:17:23.798Z,20.20
2023-03-10T06:20:09.992Z,22.83
2023-03-10T06:22:55.410Z,16.20
2023-03-10T06:25:41.239Z,21.52
2023-03-10T06:28:32.710Z,22.02
2023-03-10T06:31:21.665Z,17.58
2023-03-10T06:34:07.802Z,16.95
2023-03-10T06:36:55.273Z,18.63
2023-03-10T06:39:41.143Z,17.90
2023-03-10T06:42:26.579Z,20.45
2023-03-10T06:45:16.746Z,17.63
2023-03-10T06:48:01.935Z,17.35
2023-03-10T06:50:54.390Z,19.75
2023-03-10T06:53:40.195Z,18.92
2023-03-10T06:56:25.496Z,22.05
2023-03-10T06:59:10.631Z,21.80
2023-03-10T07:01:55.942Z,22.35
2023-03-10T07:04:41.585Z,20.73
2023-03-10T07:07:26.825Z,19.27
2023-03-10T07:10:12.238Z,20.20
2023-03-10T07:12:58.885Z,20.75
2023-03-10T07:15:45.733Z,21.60
2023-03-10T07:18:31.253Z,19.90
2023-03-10T07:21:19.761Z,21.85
2023-03-10T07:24:05.977Z,22.33
2023-03-10T07:26:51.485Z,22.90
2023-03-10T07:29:36.691Z,21.77
2023-03-10T07:32:22.081Z,23.35
2023-03-10T07:35:08.121Z,25.85
2023-03-10T07:37:53.647Z,21.95
2023-03-10T07:40:42.153Z,24.60
2023-03-10T07:43:27.592Z,23.17
2023-03-10T07:46:14.890Z,20.23
2023-03-10T07:49:04.064Z,28.10
2023-03-10T07:51:49.457Z,19.67
2023-03-10T07:54:35.065Z,21.48
2023-03-10T07:57:20.558Z,20.35
2023-03-10T08:00:07.116Z,24.63
2023-03-10T08:02:56.926Z,20.52
2023-03-10T08:05:42.722Z,22.58
2023-03-10T08:08:29.784Z,24.25
2023-03-10T08:11:15.341Z,23.20
2023-03-10T08:14:00.815Z,26.20
2023-03-10T08:16:45.879Z,26.73
2023-03-10T08:19:31.118Z,28.75
2023-03-10T08:22:16.945Z,25.08
2023-03-10T08:25:02.132Z,25.98
2023-03-10T08:27:50.433Z,25.52
2023-03-10T08:30:35.559Z,26.42
2023-03-10T08:33:21.955Z,24.42
2023-03-10T08:36:11.121Z,25.23
2023-03-10T08:38:59.000Z,26.90
2023-03-10T08:41:49.002Z,24.45
2023-03-10T08:44:34.701Z,25.95
2023-03-10T08:47:23.480Z,27.20
2023-03-10T08:50:09.434Z,23.23
2023-03-10T08:52:54.937Z,31.92
2023-03-10T08:55:40.159Z,23.58
2023-03-10T08:58:25.857Z,25.02
2023-03-10T09:01:16.616Z,27.92
2023-03-10T09:04:04.019Z,27.52
2023-03-10T09:06:49.261Z,26.90
2023-03-10T09:09:38.113Z,27.88
2023-03-10T09:12:23.374Z,24.53
2023-03-10T09:15:09.053Z,29.48
2023-03-10T09:17:55.562Z,24.27
2023-03-10T09:20:42.244Z,24.52
2023-03-10T09:23:28.366Z,24.80
2023-03-10T09:26:14.573Z,30.17
2023-03-10T09:29:00.174Z,26.60
2023-03-10T09:31:47.671Z,25.30
2023-03-10T09:34:33.242Z,27.55
2023-03-10T09:37:18.492Z,26.67
2023-03-10T09:40:06.393Z,25.13
2023-03-10T09:43:03.818Z,26.48
2023-03-10T09:45:57.603Z,26.23
2023-03-10T09:48:57.922Z,27.05
2023-03-10T09:51:47.957Z,28.42
2023-03-10T09:54:56.333Z,27.92
2023-03-10T09:57:41.560Z,26.08
2023-03-10T10:00:34.821Z,27.95
2023-03-10T10:03:42.987Z,31.48
2023-03-10T10:06:42.230Z,26.50
2023-03-10T10:09:43.225Z,27.50
2023-03-10T10:12:28.566Z,32.78
2023-03-10T10:15:17.812Z,28.65
2023-03-10T10:18:24.968Z,29.63
2023-03-10T10:21:26.026Z,26.05
2023-03-10T10:24:14.161Z,30.80
2023-03-10T10:26:59.665Z,27.98
2023-03-10T10:29:47.066Z,29.23
2023-03-10T10:32:32.292Z,25.10
2023-03-10T10:35:24.829Z,33.28
2023-03-10T10:38:10.029Z,29.60
2023-03-10T10:41:09.940Z,30.30
2023-03-10T10:43:58.748Z,24.88
2023-03-10T10:46:52.501Z,33.03
2023-03-10T10:49:38.165Z,28.88
2023-03-10T10:52:25.446Z,28.95
2023-03-10T10:55:22.369Z,23.83
2023-03-10T10:58:31.090Z,27.42
2023-03-10T11:01:17.062Z,23.70
2023-03-10T11:04:08.059Z,19.27
2023-03-10T11:07:08.671Z,24.20
2023-03-10T11:09:58.036Z,19.80
2023-03-10T11:13:02.580Z,27.00
2023-03-10T11:16:00.557Z,24.25
2023-03-10T11:18:57.804Z,25.73
2023-03-10T11:21:48.320Z,25.02
2023-03-10T11:24:45.827Z,24.17
2023-03-10T11:27:46.203Z,37.58
2023-03-10T11:30:34.415Z,27.10
2023-03-10T11:33:42.643Z,26.65
2023-03-10T11:36:55.508Z,26.63
2023-03-10T11:40:30.815Z,24.02
2023-03-10T11:43:56.868Z,22.30
2023-03-10T11:46:54.434Z,22.00
2023-03-10T11:49:43.600Z,20.13
2023-03-10T11:52:32.433Z,17.00
2023-03-10T11:55:20.885Z,14.85
2023-03-10T11:58:21.305Z,15.80
2023-03-10T12:01:11.853Z,15.48
2023-03-10T12:04:22.860Z,15.82
2023-03-10T12:07:20.557Z,14.80
2023-03-10T12:10:12.702Z,15.82
2023-03-10T12:13:02.004Z,11.52
2023-03-10T12:15:48.398Z,14.40
2023-03-10T12:18:34.219Z,13.27
2023-03-10T12:21:28.256Z,12.98
2023-03-10T12:24:43.284Z,13.80
2023-03-10T12:27:28.713Z,13.40
2023-03-10T12:30:45.861Z,14.10
2023-03-10T12:33:33.284Z,10.60
2023-03-10T12:36:22.230Z,9.75
2023-03-10T12:39:48.150Z,10.27
2023-03-10T12:42:35.217Z,10.38
2023-03-10T12:45:31.928Z,10.15
2023-03-10T12:48:20.047Z,11.10
2023-03-10T12:51:13.680Z,13.65
2023-03-10T12:54:06.542Z,17.52
2023-03-10T12:57:17.777Z,15.32
2023-03-10T13:00:13.712Z,15.45
2023-03-10T13:03:11.107Z,15.43
2023-03-10T13:05:59.562Z,14.50
2023-03-10T13:08:46.342Z,14.40
2023-03-10T13:11:37.994Z,20.02
2023-03-10T13:14:33.575Z,12.57
2023-03-10T13:17:28.526Z,12.48
2023-03-10T13:20:19.310Z,12.07
2023-03-10T13:23:04.755Z,16.48
2023-03-10T13:26:16.800Z,11.45
2023-03-10T13:29:03.668Z,8.20
2023-03-10T13:31:54.069Z,10.00
2023-03-10T13:34:39.385Z,8.15
2023-03-10T13:37:24.977Z,7.85
2023-03-10T13:40:14.988Z,10.18
2023-03-10T13:43:00.553Z,7.53
2023-03-10T13:45:45.708Z,8.32
2023-03-10T13:48:32.447Z,7.03
2023-03-10T13:51:32.453Z,11.55
2023-03-10T13:54:20.402Z,8.77
2023-03-10T13:57:31.321Z,11.82
2023-03-10T14:00:19.481Z,10.00
2023-03-10T14:03:07.910Z,11.38
2023-03-10T14:05:53.920Z,11.60
2023-03-10T14:08:39.091Z,10.57
2023-03-10T14:11:40.929Z,9.85
2023-03-10T14:14:38.595Z,11.40
2023-03-10T14:17:34.983Z,11.75
2023-03-10T14:20:39.016Z,11.88
2023-03-10T14:23:26.997Z,10.95
2023-03-10T14:26:16.753Z,13.45
2023-03-10T14:31:52.384Z,13.00
2023-03-10T14:34:37.867Z,13.65
2023-03-10T14:37:23.915Z,12.82
2023-03-10T14:40:10.782Z,18.90
2023-03-10T14:43:00.979Z,18.63
2023-03-10T14:45:47.791Z,16.10
2023-03-10T14:48:35.853Z,14.48
2023-03-10T14:51:34.363Z,14.70
2023-03-10T14:54:25.840Z,14.23
2023-03-10T14:57:13.525Z,11.82
2023-03-10T14:59:58.889Z,14.00
2023-03-10T15:02:45.570Z,15.75
2023-03-10T15:05:46.938Z,13.50
2023-03-10T15:08:33.269Z,11.68
2023-03-10T15:11:30.248Z,14.98
2023-03-10T15:14:21.138Z,13.93
2023-03-10T15:17:06.238Z,13.50
2023-03-10T15:19:51.783Z,17.08
2023-03-10T15:22:37.122Z,17.73
2023-03-10T15:25:22.571Z,18.38
2023-03-10T15:28:07.810Z,17.15
2023-03-10T15:30:54.645Z,16.02
2023-03-10T15:33:40.144Z,21.48
2023-03-10T15:36:25.467Z,22.10
2023-03-10T15:39:14.262Z,21.50
2023-03-10T15:42:04.380Z,23.92
2023-03-10T15:44:49.478Z,25.63
2023-03-10T15:47:34.964Z,20.10
2023-03-10T15:50:21.142Z,18.80
2023-03-10T15:53:06.268Z,21.08
2023-03-10T15:55:52.531Z,22.25
2023-03-10T15:58:37.991Z,28.58
2023-03-10T16:01:23.328Z,21.95
2023-03-10T16:04:08.849Z,28.15
2023-03-10T16:06:54.395Z,28.05
2023-03-10T16:09:39.770Z,24.38
2023-03-10T16:12:28.245Z,28.83
2023-03-10T16:15:16.939Z,29.33
2023-03-10T16:18:03.532Z,28.05
2023-03-10T16:20:56.710Z,26.70
2023-03-10T16:23:42.178Z,24.88
2023-03-10T16:26:27.797Z,26.08
2023-03-10T16:29:13.359Z,30.25
2023-03-10T16:31:58.998Z,33.13
2023-03-10T16:34:44.300Z,27.95
2023-03-10T16:37:29.942Z,32.53
2023-03-10T16:40:15.270Z,29.63
2023-03-10T16:43:00.468Z,29.65
2023-03-10T16:45:48.687Z,32.53
2023-03-10T16:48:34.700Z,32.13
2023-03-10T16:51:27.702Z,32.78
2023-03-10T16:54:16.628Z,30.00
2023-03-10T16:57:03.411Z,31.87
2023-03-10T16:59:48.948Z,25.25
2023-03-10T17:02:34.299Z,26.45
2023-03-10T17:05:19.889Z,23.52
2023-03-10T17:08:05.982Z,25.83
2023-03-10T17:10:51.390Z,26.17
2023-03-10T17:13:37.797Z,31.38
2023-03-10T17:16:28.155Z,26.77
2023-03-10T17:19:19.592Z,29.27
2023-03-10T17:22:05.034Z,24.00
2023-03-10T17:24:58.112Z,25.77
2023-03-10T17:27:43.842Z,22.98
2023-03-10T17:30:29.564Z,23.50
2023-03-10T17:33:15.005Z,24.33
2023-03-10T17:36:07.893Z,29.50
2023-03-10T17:38:58.517Z,26.63
2023-03-10T17:41:43.583Z,31.73
2023-03-10T17:44:29.117Z,28.17
2023-03-10T17:47:14.657Z,31.33
2023-03-10T17:50:02.048Z,28.52
2023-03-10T17:52:47.773Z,23.83
2023-03-10T17:55:35.383Z,27.15
2023-03-10T17:58:21.050Z,24.83
2023-03-10T18:01:14.211Z,24.88
2023-03-10T18:04:00.686Z,24.08
2023-03-10T18:06:46.232Z,30.88
2023-03-10T18:09:31.905Z,24.05
2023-03-10T18:12:17.458Z,22.33
2023-03-10T18:15:02.734Z,23.17
2023-03-10T18:17:47.885Z,18.15
2023-03-10T18:20:34.692Z,20.25
2023-03-10T18:23:23.296Z,19.73
2023-03-10T18:26:10.645Z,18.55
2023-03-10T18:28:56.583Z,18.15
2023-03-10T18:31:41.894Z,18.13
2023-03-10T18:34:27.072Z,22.15
2023-03-10T18:37:12.869Z,19.42
2023-03-10T18:39:59.326Z,19.67
2023-03-10T18:42:44.898Z,18.88
2023-03-10T18:45:30.061Z,20.08
2023-03-10T18:48:15.355Z,16.27
2023-03-10T18:51:01.046Z,20.73
2023-03-10T18:53:46.276Z,18.95
2023-03-10T18:56:31.597Z,19.45
2023-03-10T18:59:16.708Z,19.35
2023-03-10T19:02:02.084Z,18.23
2023-03-10T19:04:49.048Z,21.05
2023-03-10T19:07:36.445Z,18.25
2023-03-10T19:10:22.414Z,20.30
2023-03-10T19:13:07.931Z,18.10
2023-03-10T19:15:53.983Z,20.35
2023-03-10T19:18:40.207Z,19.08
2023-03-10T19:21:25.373Z,20.52
2023-03-10T19:24:11.104Z,19.38
2023-03-10T19:26:56.588Z,20.85
2023-03-10T19:29:41.693Z,22.33
2023-03-10T19:32:28.029Z,22.67
2023-03-10T19:35:15.069Z,22.63
2023-03-10T19:38:00.452Z,20.98
2023-03-10T19:40:47.079Z,22.40
2023-03-10T19:43:32.890Z,22.30
2023-03-10T19:46:19.087Z,25.27
2023-03-10T19:49:06.543Z,24.73
2023-03-10T19:51:52.536Z,26.27
2023-03-10T19:54:38.096Z,27.45
2023-03-10T19:57:23.782Z,26.10
2023-03-10T20:00:13.623Z,26.25
2023-03-10T20:02:59.231Z,26.10
2023-03-10T20:05:47.102Z,30.17
2023-03-10T20:08:34.053Z,29.85
2023-03-10T20:11:19.835Z,28.35
2023-03-10T20:14:05.801Z,30.67
2023-03-10T20:16:51.477Z,29.85
2023-03-10T20:19:38.886Z,27.75
2023-03-10T20:22:24.364Z,31.63
2023-03-10T20:25:12.367Z,28.77
2023-03-10T20:27:57.930Z,32.28
2023-03-10T20:30:43.480Z,31.55
2023-03-10T20:33:29.143Z,32.15
2023-03-10T20:36:15.837Z,34.65
2023-03-10T20:39:01.847Z,28.35
2023-03-10T20:41:49.169Z,32.58
2023-03-10T20:44:34.839Z,36.90
2023-03-10T20:47:20.123Z,34.50
2023-03-10T20:50:07.475Z,36.10
2023-03-10T20:52:53.552Z,35.72
2023-03-10T20:55:41.896Z,34.25
2023-03-10T20:58:27.575Z,32.55
2023-03-10T21:01:18.545Z,33.83
2023-03-10T21:04:04.612Z,35.60
2023-03-10T21:06:49.663Z,36.47
2023-03-10T21:09:35.186Z,31.70
2023-03-10T21:12:21.348Z,34.47
2023-03-10T21:15:08.072Z,35.65
2023-03-10T21:17:53.187Z,34.28
2023-03-10T21:20:38.655Z,32.00
2023-03-10T21:23:24.134Z,30.83
2023-03-10T21:26:15.513Z,28.88
2023-03-10T21:29:00.883Z,31.05
2023-03-10T21:31:46.092Z,28.67
2023-03-10T21:34:31.776Z,29.25
2023-03-10T21:37:17.042Z,29.45
2023-03-10T21:40:05.140Z,30.40
2023-03-10T21:42:50.395Z,26.75
2023-03-10T21:45:37.318Z,31.45
2023-03-10T21:48:22.609Z,25.60
2023-03-10T21:51:09.656Z,28.38
2023-03-10T21:53:55.328Z,27.83
2023-03-10T21:56:40.893Z,29.15
2023-03-10T21:59:25.899Z,26.67
2023-03-10T22:02:24.287Z,27.60
2023-03-10T22:05:13.646Z,26.75
